sensor_id;sensor_type;location;lat;lon;timestamp;P1;durP1;ratioP1;P2;durP2;ratioP2
68940;SDS011;55982;51.476;7.552;2023-03-01T00:01:58;32.33;;;16.58;;
68940;SDS011;55982;51.476;7.552;2023-03-01T00:04:23;30.35;;;16.38;;
68940;SDS011;55982;51.476;7.552;2023-03-01T00:06:48;32.28;;;16.80;;
68940;SDS011;55982;51.476;7.552;2023-03-01T00:09:14;31.65;;;16.55;;
68940;SDS011;55982;51.476;7.552;2023-03-01T00:11:40;36.47;;;17.45;;
68940;SDS011;55982;51.476;7.552;2023-03-01T00:14:06;43.20;;;19.65;;
68940;SDS011;55982;51.476;7.552;2023-03-01T00:16:38;38.58;;;18.58;;
68940;SDS011;55982;51.476;7.552;2023-03-01T00:19:06;40.72;;;19.73;;
68940;SDS011;55982;51.476;7.552;2023-03-01T00:21:32;39.38;;;19.63;;
68940;SDS011;55982;51.476;7.552;2023-03-01T00:24:00;41.80;;;18.95;;
68940;SDS011;55982;51.476;7.552;2023-03-01T00:26:26;37.88;;;18.60;;
68940;SDS011;55982;51.476;7.552;2023-03-01T00:28:53;36.20;;;18.10;;
68940;SDS011;55982;51.476;7.552;2023-03-01T00:31:24;36.42;;;18.98;;
68940;SDS011;55982;51.476;7.552;2023-03-01T00:33:52;35.97;;;18.90;;
68940;SDS011;55982;51.476;7.552;2023-03-01T00:36:23;43.00;;;19.33;;
68940;SDS011;55982;51.476;7.552;2023-03-01T00:38:50;39.35;;;18.77;;
68940;SDS011;55982;51.476;7.552;2023-03-01T00:41:16;37.17;;;18.77;;
68940;SDS011;55982;51.476;7.552;2023-03-01T00:43:43;33.28;;;18.23;;
68940;SDS011;55982;51.476;7.552;2023-03-01T00:46:12;42.58;;;21.20;;
68940;SDS011;55982;51.476;7.552;2023-03-01T00:48:39;43.20;;;21.67;;
68940;SDS011;55982;51.476;7.552;2023-03-01T00:51:09;43.00;;;21.23;;
68940;SDS011;55982;51.476;7.552;2023-03-01T00:53:35;37.70;;;20.15;;
68940;SDS011;55982;51.476;7.552;2023-03-01T00:56:02;45.67;;;20.85;;
68940;SDS011;55982;51.476;7.552;2023-03-01T00:58:28;39.92;;;20.98;;
68940;SDS011;55982;51.476;7.552;2023-03-01T01:00:53;38.47;;;19.55;;
68940;SDS011;55982;51.476;7.552;2023-03-01T01:03:19;42.03;;;20.13;;
68940;SDS011;55982;51.476;7.552;2023-03-01T01:05:45;42.28;;;20.00;;
68940;SDS011;55982;51.476;7.552;2023-03-01T01:08:10;37.47;;;18.02;;
68940;SDS011;55982;51.476;7.552;2023-03-01T01:10:36;39.80;;;19.65;;
68940;SDS011;55982;51.476;7.552;2023-03-01T01:13:01;38.60;;;19.13;;
68940;SDS011;55982;51.476;7.552;2023-03-01T01:15:27;31.85;;;17.55;;
68940;SDS011;55982;51.476;7.552;2023-03-01T01:17:52;34.95;;;17.98;;
68940;SDS011;55982;51.476;7.552;2023-03-01T01:20:18;40.47;;;18.92;;
68940;SDS011;55982;51.476;7.552;2023-03-01T01:22:43;37.63;;;18.73;;
68940;SDS011;55982;51.476;7.552;2023-03-01T01:25:08;39.70;;;19.08;;
68940;SDS011;55982;51.476;7.552;2023-03-01T01:27:34;36.50;;;17.83;;
68940;SDS011;55982;51.476;7.552;2023-03-01T01:29:59;39.65;;;18.27;;
68940;SDS011;55982;51.476;7.552;2023-03-01T01:32:25;37.38;;;19.60;;
68940;SDS011;55982;51.476;7.552;2023-03-01T01:34:50;38.67;;;19.13;;
68940;SDS011;55982;51.476;7.552;2023-03-01T01:37:15;41.92;;;19.05;;
68940;SDS011;55982;51.476;7.552;2023-03-01T01:39:41;44.15;;;20.45;;
68940;SDS011;55982;51.476;7.552;2023-03-01T01:42:09;39.65;;;19.95;;
68940;SDS011;55982;51.476;7.552;2023-03-01T01:44:42;42.38;;;20.40;;
68940;SDS011;55982;51.476;7.552;2023-03-01T01:47:11;41.50;;;20.23;;
68940;SDS011;55982;51.476;7.552;2023-03-01T01:49:51;48.42;;;21.20;;
68940;SDS011;55982;51.476;7.552;2023-03-01T01:52:20;45.33;;;20.75;;
68940;SDS011;55982;51.476;7.552;2023-03-01T01:54:51;40.22;;;19.30;;
68940;SDS011;55982;51.476;7.552;2023-03-01T01:57:29;45.58;;;21.35;;
68940;SDS011;55982;51.476;7.552;2023-03-01T02:00:17;40.10;;;19.48;;
68940;SDS011;55982;51.476;7.552;2023-03-01T02:02:46;47.53;;;20.92;;
68940;SDS011;55982;51.476;7.552;2023-03-01T02:07:57;48.17;;;22.23;;
68940;SDS011;55982;51.476;7.552;2023-03-01T02:10:23;47.53;;;23.08;;
68940;SDS011;55982;51.476;7.552;2023-03-01T02:12:49;43.97;;;22.42;;
68940;SDS011;55982;51.476;7.552;2023-03-01T02:15:16;44.47;;;23.00;;
68940;SDS011;55982;51.476;7.552;2023-03-01T02:17:41;45.97;;;22.38;;
68940;SDS011;55982;51.476;7.552;2023-03-01T02:20:14;50.45;;;23.35;;
68940;SDS011;55982;51.476;7.552;2023-03-01T02:22:48;45.60;;;21.95;;
68940;SDS011;55982;51.476;7.552;2023-03-01T02:30:32;52.30;;;22.65;;
68940;SDS011;55982;51.476;7.552;2023-03-01T02:32:58;48.28;;;23.38;;
68940;SDS011;55982;51.476;7.552;2023-03-01T02:35:36;53.63;;;23.30;;
68940;SDS011;55982;51.476;7.552;2023-03-01T02:38:03;45.20;;;21.77;;
68940;SDS011;55982;51.476;7.552;2023-03-01T02:40:33;47.58;;;22.77;;
68940;SDS011;55982;51.476;7.552;2023-03-01T02:43:01;49.70;;;22.85;;
68940;SDS011;55982;51.476;7.552;2023-03-01T02:45:30;49.90;;;22.77;;
68940;SDS011;55982;51.476;7.552;2023-03-01T02:47:56;47.70;;;23.27;;
68940;SDS011;55982;51.476;7.552;2023-03-01T02:53:13;49.55;;;23.50;;
68940;SDS011;55982;51.476;7.552;2023-03-01T02:55:46;48.55;;;22.83;;
68940;SDS011;55982;51.476;7.552;2023-03-01T02:58:12;49.35;;;22.45;;
68940;SDS011;55982;51.476;7.552;2023-03-01T03:00:40;46.80;;;22.85;;
68940;SDS011;55982;51.476;7.552;2023-03-01T03:03:10;52.03;;;22.70;;
68940;SDS011;55982;51.476;7.552;2023-03-01T03:05:38;52.20;;;23.50;;
68940;SDS011;55982;51.476;7.552;2023-03-01T03:08:04;46.30;;;22.15;;
68940;SDS011;55982;51.476;7.552;2023-03-01T03:10:31;47.03;;;22.98;;
68940;SDS011;55982;51.476;7.552;2023-03-01T03:12:59;45.38;;;22.33;;
68940;SDS011;55982;51.476;7.552;2023-03-01T03:15:27;49.22;;;22.95;;
68940;SDS011;55982;51.476;7.552;2023-03-01T03:17:54;50.85;;;23.33;;
68940;SDS011;55982;51.476;7.552;2023-03-01T03:20:21;53.95;;;23.48;;
68940;SDS011;55982;51.476;7.552;2023-03-01T03:22:51;49.58;;;23.88;;
68940;SDS011;55982;51.476;7.552;2023-03-01T03:25:18;54.83;;;25.00;;
68940;SDS011;55982;51.476;7.552;2023-03-01T03:27:46;52.75;;;24.17;;
68940;SDS011;55982;51.476;7.552;2023-03-01T03:30:13;51.17;;;23.42;;
68940;SDS011;55982;51.476;7.552;2023-03-01T03:32:43;53.88;;;23.55;;
68940;SDS011;55982;51.476;7.552;2023-03-01T03:35:17;46.03;;;22.67;;
68940;SDS011;55982;51.476;7.552;2023-03-01T03:37:44;53.30;;;24.08;;
68940;SDS011;55982;51.476;7.552;2023-03-01T03:40:29;50.47;;;23.48;;
68940;SDS011;55982;51.476;7.552;2023-03-01T03:42:56;50.25;;;23.08;;
68940;SDS011;55982;51.476;7.552;2023-03-01T03:45:22;48.55;;;22.38;;
68940;SDS011;55982;51.476;7.552;2023-03-01T03:47:48;49.17;;;22.45;;
68940;SDS011;55982;51.476;7.552;2023-03-01T03:50:14;40.75;;;21.13;;
68940;SDS011;55982;51.476;7.552;2023-03-01T03:52:40;46.30;;;23.13;;
68940;SDS011;55982;51.476;7.552;2023-03-01T03:55:07;45.78;;;21.63;;
68940;SDS011;55982;51.476;7.552;2023-03-01T03:57:39;53.67;;;21.85;;
68940;SDS011;55982;51.476;7.552;2023-03-01T04:00:07;50.72;;;22.33;;
68940;SDS011;55982;51.476;7.552;2023-03-01T04:02:41;50.20;;;22.20;;
68940;SDS011;55982;51.476;7.552;2023-03-01T04:05:07;48.00;;;21.77;;
68940;SDS011;55982;51.476;7.552;2023-03-01T04:07:34;49.67;;;23.35;;
68940;SDS011;55982;51.476;7.552;2023-03-01T04:10:02;47.17;;;22.85;;
68940;SDS011;55982;51.476;7.552;2023-03-01T04:12:28;47.55;;;22.83;;
68940;SDS011;55982;51.476;7.552;2023-03-01T04:14:54;49.60;;;23.17;;
68940;SDS011;55982;51.476;7.552;2023-03-01T04:17:19;53.33;;;23.10;;
68940;SDS011;55982;51.476;7.552;2023-03-01T04:19:44;49.60;;;23.17;;
68940;SDS011;55982;51.476;7.552;2023-03-01T04:22:13;54.58;;;24.42;;
68940;SDS011;55982;51.476;7.552;2023-03-01T04:24:42;54.53;;;23.38;;
68940;SDS011;55982;51.476;7.552;2023-03-01T04:27:08;54.70;;;23.15;;
68940;SDS011;55982;51.476;7.552;2023-03-01T04:29:34;64.68;;;26.75;;
68940;SDS011;55982;51.476;7.552;2023-03-01T04:31:59;53.28;;;24.25;;
68940;SDS011;55982;51.476;7.552;2023-03-01T04:34:25;50.00;;;23.60;;
68940;SDS011;55982;51.476;7.552;2023-03-01T04:36:51;52.50;;;23.42;;
68940;SDS011;55982;51.476;7.552;2023-03-01T04:39:17;66.78;;;26.90;;
68940;SDS011;55982;51.476;7.552;2023-03-01T04:41:43;58.90;;;26.48;;
68940;SDS011;55982;51.476;7.552;2023-03-01T04:44:08;52.85;;;25.05;;
68940;SDS011;55982;51.476;7.552;2023-03-01T04:46:34;57.17;;;24.95;;
68940;SDS011;55982;51.476;7.552;2023-03-01T04:48:59;50.85;;;24.92;;
68940;SDS011;55982;51.476;7.552;2023-03-01T04:51:25;56.22;;;24.38;;
68940;SDS011;55982;51.476;7.552;2023-03-01T04:53:50;51.35;;;24.55;;
68940;SDS011;55982;51.476;7.552;2023-03-01T04:56:16;50.05;;;23.27;;
68940;SDS011;55982;51.476;7.552;2023-03-01T04:58:45;51.90;;;23.23;;
68940;SDS011;55982;51.476;7.552;2023-03-01T05:01:12;60.33;;;25.65;;
68940;SDS011;55982;51.476;7.552;2023-03-01T05:03:42;51.55;;;23.95;;
68940;SDS011;55982;51.476;7.552;2023-03-01T05:06:09;50.95;;;22.90;;
68940;SDS011;55982;51.476;7.552;2023-03-01T05:08:35;48.88;;;22.55;;
68940;SDS011;55982;51.476;7.552;2023-03-01T05:11:04;45.20;;;22.27;;
68940;SDS011;55982;51.476;7.552;2023-03-01T05:13:30;50.60;;;23.80;;
68940;SDS011;55982;51.476;7.552;2023-03-01T05:15:57;53.70;;;24.70;;
68940;SDS011;55982;51.476;7.552;2023-03-01T05:18:25;53.42;;;23.70;;
68940;SDS011;55982;51.476;7.552;2023-03-01T05:20:52;57.28;;;24.67;;
68940;SDS011;55982;51.476;7.552;2023-03-01T05:23:17;55.22;;;24.33;;
68940;SDS011;55982;51.476;7.552;2023-03-01T05:25:43;49.15;;;22.63;;
68940;SDS011;55982;51.476;7.552;2023-03-01T05:28:10;53.70;;;23.83;;
68940;SDS011;55982;51.476;7.552;2023-03-01T05:30:36;56.60;;;23.90;;
68940;SDS011;55982;51.476;7.552;2023-03-01T05:33:04;52.58;;;23.60;;
68940;SDS011;55982;51.476;7.552;2023-03-01T05:35:32;64.55;;;25.55;;
68940;SDS011;55982;51.476;7.552;2023-03-01T05:37:57;61.83;;;25.88;;
68940;SDS011;55982;51.476;7.552;2023-03-01T05:40:23;62.38;;;25.20;;
68940;SDS011;55982;51.476;7.552;2023-03-01T05:42:53;54.95;;;25.30;;
68940;SDS011;55982;51.476;7.552;2023-03-01T05:45:20;56.58;;;25.08;;
68940;SDS011;55982;51.476;7.552;2023-03-01T05:47:47;55.88;;;23.10;;
68940;SDS011;55982;51.476;7.552;2023-03-01T05:50:14;53.35;;;23.42;;
68940;SDS011;55982;51.476;7.552;2023-03-01T05:52:44;50.38;;;22.88;;
68940;SDS011;55982;51.476;7.552;2023-03-01T05:55:18;47.78;;;21.60;;
68940;SDS011;55982;51.476;7.552;2023-03-01T05:57:45;52.20;;;23.63;;
68940;SDS011;55982;51.476;7.552;2023-03-01T06:00:11;53.00;;;23.67;;
68940;SDS011;55982;51.476;7.552;2023-03-01T06:02:38;53.38;;;23.55;;
68940;SDS011;55982;51.476;7.552;2023-03-01T06:05:07;55.42;;;25.05;;
68940;SDS011;55982;51.476;7.552;2023-03-01T06:07:34;54.25;;;24.83;;
68940;SDS011;55982;51.476;7.552;2023-03-01T06:10:00;59.10;;;24.70;;
68940;SDS011;55982;51.476;7.552;2023-03-01T06:12:27;52.22;;;24.00;;
68940;SDS011;55982;51.476;7.552;2023-03-01T06:14:55;63.85;;;26.50;;
68940;SDS011;55982;51.476;7.552;2023-03-01T06:17:20;52.72;;;24.35;;
68940;SDS011;55982;51.476;7.552;2023-03-01T06:19:46;52.97;;;24.40;;
68940;SDS011;55982;51.476;7.552;2023-03-01T06:22:12;53.28;;;24.52;;
68940;SDS011;55982;51.476;7.552;2023-03-01T06:24:37;60.50;;;25.88;;
68940;SDS011;55982;51.476;7.552;2023-03-01T06:27:02;59.58;;;26.10;;
68940;SDS011;55982;51.476;7.552;2023-03-01T06:29:28;57.40;;;25.10;;
68940;SDS011;55982;51.476;7.552;2023-03-01T06:31:53;59.08;;;24.27;;
68940;SDS011;55982;51.476;7.552;2023-03-01T06:34:18;56.63;;;26.25;;
68940;SDS011;55982;51.476;7.552;2023-03-01T06:36:44;59.42;;;25.08;;
68940;SDS011;55982;51.476;7.552;2023-03-01T06:39:09;90.93;;;41.60;;
68940;SDS011;55982;51.476;7.552;2023-03-01T06:41:35;64.20;;;29.75;;
68940;SDS011;55982;51.476;7.552;2023-03-01T06:44:00;57.05;;;24.05;;
68940;SDS011;55982;51.476;7.552;2023-03-01T06:46:25;53.33;;;23.92;;
68940;SDS011;55982;51.476;7.552;2023-03-01T06:48:51;53.60;;;24.52;;
68940;SDS011;55982;51.476;7.552;2023-03-01T06:51:16;53.90;;;22.63;;
68940;SDS011;55982;51.476;7.552;2023-03-01T06:53:42;55.63;;;23.02;;
68940;SDS011;55982;51.476;7.552;2023-03-01T06:56:08;52.50;;;22.20;;
68940;SDS011;55982;51.476;7.552;2023-03-01T06:58:33;47.83;;;21.02;;
68940;SDS011;55982;51.476;7.552;2023-03-01T07:00:59;48.28;;;20.52;;
68940;SDS011;55982;51.476;7.552;2023-03-01T07:03:24;46.47;;;21.38;;
68940;SDS011;55982;51.476;7.552;2023-03-01T07:05:50;37.63;;;18.20;;
68940;SDS011;55982;51.476;7.552;2023-03-01T07:08:19;42.42;;;19.65;;
68940;SDS011;55982;51.476;7.552;2023-03-01T07:10:45;33.88;;;17.13;;
68940;SDS011;55982;51.476;7.552;2023-03-01T07:13:10;35.03;;;16.90;;
68940;SDS011;55982;51.476;7.552;2023-03-01T07:15:35;30.63;;;15.68;;
68940;SDS011;55982;51.476;7.552;2023-03-01T07:18:01;32.15;;;15.02;;
68940;SDS011;55982;51.476;7.552;2023-03-01T07:20:26;33.22;;;15.80;;
68940;SDS011;55982;51.476;7.552;2023-03-01T07:22:52;27.02;;;13.60;;
68940;SDS011;55982;51.476;7.552;2023-03-01T07:25:18;33.83;;;14.50;;
68940;SDS011;55982;51.476;7.552;2023-03-01T07:27:48;31.38;;;14.05;;
68940;SDS011;55982;51.476;7.552;2023-03-01T07:30:14;29.02;;;14.55;;
68940;SDS011;55982;51.476;7.552;2023-03-01T07:32:39;27.02;;;14.00;;
68940;SDS011;55982;51.476;7.552;2023-03-01T07:35:05;26.85;;;13.80;;
68940;SDS011;55982;51.476;7.552;2023-03-01T07:37:31;29.63;;;14.07;;
68940;SDS011;55982;51.476;7.552;2023-03-01T07:39:56;30.42;;;14.30;;
68940;SDS011;55982;51.476;7.552;2023-03-01T07:42:22;27.13;;;14.13;;
68940;SDS011;55982;51.476;7.552;2023-03-01T07:44:48;25.88;;;13.00;;
68940;SDS011;55982;51.476;7.552;2023-03-01T07:47:13;24.35;;;12.93;;
68940;SDS011;55982;51.476;7.552;2023-03-01T07:49:39;22.88;;;12.77;;
68940;SDS011;55982;51.476;7.552;2023-03-01T07:52:04;23.95;;;13.07;;
68940;SDS011;55982;51.476;7.552;2023-03-01T07:54:29;24.15;;;13.65;;
68940;SDS011;55982;51.476;7.552;2023-03-01T07:56:56;29.70;;;14.90;;
68940;SDS011;55982;51.476;7.552;2023-03-01T07:59:21;27.58;;;14.73;;
68940;SDS011;55982;51.476;7.552;2023-03-01T08:01:48;26.77;;;14.35;;
68940;SDS011;55982;51.476;7.552;2023-03-01T08:04:14;23.70;;;13.68;;
68940;SDS011;55982;51.476;7.552;2023-03-01T08:06:39;24.60;;;13.05;;
68940;SDS011;55982;51.476;7.552;2023-03-01T08:09:04;22.85;;;13.43;;
68940;SDS011;55982;51.476;7.552;2023-03-01T08:11:30;21.35;;;12.98;;
68940;SDS011;55982;51.476;7.552;2023-03-01T08:13:55;26.52;;;15.90;;
68940;SDS011;55982;51.476;7.552;2023-03-01T08:16:21;21.42;;;13.35;;
68940;SDS011;55982;51.476;7.552;2023-03-01T08:18:46;28.25;;;13.95;;
68940;SDS011;55982;51.476;7.552;2023-03-01T08:21:13;21.48;;;13.35;;
68940;SDS011;55982;51.476;7.552;2023-03-01T08:23:40;23.80;;;13.95;;
68940;SDS011;55982;51.476;7.552;2023-03-01T08:26:17;20.95;;;12.82;;
68940;SDS011;55982;51.476;7.552;2023-03-01T08:28:44;21.30;;;12.55;;
68940;SDS011;55982;51.476;7.552;2023-03-01T08:31:26;22.00;;;13.13;;
68940;SDS011;55982;51.476;7.552;2023-03-01T08:33:54;21.10;;;12.25;;
68940;SDS011;55982;51.476;7.552;2023-03-01T08:36:25;19.92;;;12.57;;
68940;SDS011;55982;51.476;7.552;2023-03-01T08:38:53;19.48;;;12.35;;
68940;SDS011;55982;51.476;7.552;2023-03-01T08:41:19;21.02;;;11.98;;
68940;SDS011;55982;51.476;7.552;2023-03-01T08:43:45;18.77;;;12.07;;
68940;SDS011;55982;51.476;7.552;2023-03-01T08:46:11;20.85;;;11.63;;
68940;SDS011;55982;51.476;7.552;2023-03-01T08:48:36;21.42;;;12.48;;
68940;SDS011;55982;51.476;7.552;2023-03-01T08:51:21;17.60;;;10.98;;
68940;SDS011;55982;51.476;7.552;2023-03-01T08:53:47;15.93;;;10.77;;
68940;SDS011;55982;51.476;7.552;2023-03-01T08:56:13;18.85;;;11.05;;
68940;SDS011;55982;51.476;7.552;2023-03-01T08:58:40;17.13;;;9.88;;
68940;SDS011;55982;51.476;7.552;2023-03-01T09:01:09;16.42;;;9.57;;
68940;SDS011;55982;51.476;7.552;2023-03-01T09:03:37;17.58;;;9.90;;
68940;SDS011;55982;51.476;7.552;2023-03-01T09:06:03;18.90;;;9.93;;
68940;SDS011;55982;51.476;7.552;2023-03-01T09:08:30;18.50;;;9.48;;
68940;SDS011;55982;51.476;7.552;2023-03-01T09:11:00;15.43;;;9.50;;
68940;SDS011;55982;51.476;7.552;2023-03-01T09:13:27;18.08;;;10.15;;
68940;SDS011;55982;51.476;7.552;2023-03-01T09:15:55;16.00;;;9.52;;
68940;SDS011;55982;51.476;7.552;2023-03-01T09:18:21;14.45;;;9.45;;
68940;SDS011;55982;51.476;7.552;2023-03-01T09:20:46;15.65;;;9.63;;
68940;SDS011;55982;51.476;7.552;2023-03-01T09:23:11;17.10;;;10.23;;
68940;SDS011;55982;51.476;7.552;2023-03-01T09:25:37;16.45;;;8.73;;
68940;SDS011;55982;51.476;7.552;2023-03-01T09:28:02;18.90;;;9.85;;
68940;SDS011;55982;51.476;7.552;2023-03-01T09:30:28;16.10;;;9.77;;
68940;SDS011;55982;51.476;7.552;2023-03-01T09:32:55;19.10;;;10.30;;
68940;SDS011;55982;51.476;7.552;2023-03-01T09:35:21;16.20;;;10.20;;
68940;SDS011;55982;51.476;7.552;2023-03-01T09:37:47;17.77;;;10.38;;
68940;SDS011;55982;51.476;7.552;2023-03-01T09:40:15;16.50;;;10.10;;
68940;SDS011;55982;51.476;7.552;2023-03-01T09:43:07;15.73;;;9.32;;
68940;SDS011;55982;51.476;7.552;2023-03-01T09:45:59;17.88;;;10.73;;
68940;SDS011;55982;51.476;7.552;2023-03-01T09:48:31;14.10;;;8.68;;
68940;SDS011;55982;51.476;7.552;2023-03-01T09:51:02;15.23;;;9.77;;
68940;SDS011;55982;51.476;7.552;2023-03-01T09:53:34;18.70;;;9.23;;
68940;SDS011;55982;51.476;7.552;2023-03-01T10:07:21;19.35;;;8.85;;
68940;SDS011;55982;51.476;7.552;2023-03-01T10:10:10;18.40;;;9.20;;
68940;SDS011;55982;51.476;7.552;2023-03-01T10:12:52;17.70;;;10.07;;
68940;SDS011;55982;51.476;7.552;2023-03-01T10:15:19;17.13;;;9.65;;
68940;SDS011;55982;51.476;7.552;2023-03-01T10:17:52;14.80;;;8.82;;
68940;SDS011;55982;51.476;7.552;2023-03-01T10:22:50;14.68;;;9.23;;
68940;SDS011;55982;51.476;7.552;2023-03-01T10:25:23;16.48;;;9.15;;
68940;SDS011;55982;51.476;7.552;2023-03-01T10:31:03;17.45;;;9.20;;
68940;SDS011;55982;51.476;7.552;2023-03-01T10:33:30;14.75;;;9.23;;
68940;SDS011;55982;51.476;7.552;2023-03-01T10:35:57;16.52;;;9.45;;
68940;SDS011;55982;51.476;7.552;2023-03-01T10:38:23;18.38;;;9.88;;
68940;SDS011;55982;51.476;7.552;2023-03-01T10:40:51;15.38;;;9.32;;
68940;SDS011;55982;51.476;7.552;2023-03-01T10:43:25;16.60;;;9.55;;
68940;SDS011;55982;51.476;7.552;2023-03-01T10:45:51;15.57;;;9.25;;
68940;SDS011;55982;51.476;7.552;2023-03-01T10:48:19;14.55;;;9.80;;
68940;SDS011;55982;51.476;7.552;2023-03-01T10:50:50;15.38;;;9.43;;
68940;SDS011;55982;51.476;7.552;2023-03-01T10:53:32;17.02;;;9.50;;
68940;SDS011;55982;51.476;7.552;2023-03-01T10:58:32;17.43;;;9.70;;
68940;SDS011;55982;51.476;7.552;2023-03-01T11:01:05;14.27;;;9.68;;
68940;SDS011;55982;51.476;7.552;2023-03-01T11:04:03;17.88;;;9.13;;
68940;SDS011;55982;51.476;7.552;2023-03-01T11:06:31;15.70;;;8.68;;
68940;SDS011;55982;51.476;7.552;2023-03-01T11:09:13;16.27;;;10.15;;
68940;SDS011;55982;51.476;7.552;2023-03-01T11:11:45;14.55;;;8.70;;
68940;SDS011;55982;51.476;7.552;2023-03-01T11:14:17;21.98;;;9.75;;
68940;SDS011;55982;51.476;7.552;2023-03-01T11:16:47;15.85;;;9.45;;
68940;SDS011;55982;51.476;7.552;2023-03-01T11:19:16;15.50;;;9.88;;
68940;SDS011;55982;51.476;7.552;2023-03-01T11:24:15;15.23;;;9.27;;
68940;SDS011;55982;51.476;7.552;2023-03-01T11:26:44;15.68;;;9.20;;
68940;SDS011;55982;51.476;7.552;2023-03-01T11:29:30;15.68;;;9.80;;
68940;SDS011;55982;51.476;7.552;2023-03-01T11:32:02;15.00;;;8.85;;
68940;SDS011;55982;51.476;7.552;2023-03-01T11:34:38;15.75;;;9.35;;
68940;SDS011;55982;51.476;7.552;2023-03-01T11:37:13;15.73;;;9.45;;
68940;SDS011;55982;51.476;7.552;2023-03-01T11:39:53;16.55;;;9.93;;
68940;SDS011;55982;51.476;7.552;2023-03-01T11:42:46;14.18;;;9.25;;
68940;SDS011;55982;51.476;7.552;2023-03-01T11:45:23;15.68;;;9.93;;
68940;SDS011;55982;51.476;7.552;2023-03-01T11:48:17;16.30;;;9.27;;
68940;SDS011;55982;51.476;7.552;2023-03-01T11:50:53;17.70;;;9.90;;
68940;SDS011;55982;51.476;7.552;2023-03-01T11:56:03;16.15;;;9.85;;
68940;SDS011;55982;51.476;7.552;2023-03-01T12:04:11;13.30;;;8.55;;
68940;SDS011;55982;51.476;7.552;2023-03-01T12:07:09;15.93;;;9.75;;
68940;SDS011;55982;51.476;7.552;2023-03-01T12:12:52;20.55;;;9.45;;
68940;SDS011;55982;51.476;7.552;2023-03-01T12:18:21;15.73;;;8.68;;
68940;SDS011;55982;51.476;7.552;2023-03-01T12:21:01;16.42;;;9.40;;
68940;SDS011;55982;51.476;7.552;2023-03-01T12:24:33;16.88;;;9.80;;
68940;SDS011;55982;51.476;7.552;2023-03-01T12:26:33;19.52;;;9.68;;
68940;SDS011;55982;51.476;7.552;2023-03-01T12:31:47;17.40;;;10.35;;
68940;SDS011;55982;51.476;7.552;2023-03-01T12:34:38;19.00;;;10.50;;
68940;SDS011;55982;51.476;7.552;2023-03-01T12:51:08;18.52;;;9.88;;
68940;SDS011;55982;51.476;7.552;2023-03-01T12:53:40;20.52;;;10.05;;
68940;SDS011;55982;51.476;7.552;2023-03-01T12:56:10;20.15;;;12.05;;
68940;SDS011;55982;51.476;7.552;2023-03-01T13:17:49;21.08;;;10.57;;
68940;SDS011;55982;51.476;7.552;2023-03-01T13:20:19;19.75;;;10.70;;
68940;SDS011;55982;51.476;7.552;2023-03-01T13:28:40;17.30;;;10.05;;
68940;SDS011;55982;51.476;7.552;2023-03-01T13:31:07;19.60;;;9.73;;
68940;SDS011;55982;51.476;7.552;2023-03-01T13:36:07;23.35;;;9.95;;
68940;SDS011;55982;51.476;7.552;2023-03-01T13:38:47;16.23;;;9.55;;
68940;SDS011;55982;51.476;7.552;2023-03-01T13:41:48;17.42;;;9.70;;
68940;SDS011;55982;51.476;7.552;2023-03-01T13:46:48;15.02;;;8.85;;
68940;SDS011;55982;51.476;7.552;2023-03-01T13:49:15;16.05;;;8.55;;
68940;SDS011;55982;51.476;7.552;2023-03-01T13:51:51;18.00;;;8.70;;
68940;SDS011;55982;51.476;7.552;2023-03-01T13:54:20;15.65;;;9.02;;
68940;SDS011;55982;51.476;7.552;2023-03-01T13:56:55;17.27;;;9.20;;
68940;SDS011;55982;51.476;7.552;2023-03-01T13:59:23;16.27;;;8.52;;
68940;SDS011;55982;51.476;7.552;2023-03-01T14:01:52;17.42;;;8.85;;
68940;SDS011;55982;51.476;7.552;2023-03-01T14:06:48;14.40;;;8.23;;
68940;SDS011;55982;51.476;7.552;2023-03-01T14:09:18;17.95;;;8.38;;
68940;SDS011;55982;51.476;7.552;2023-03-01T14:14:44;14.73;;;8.30;;
68940;SDS011;55982;51.476;7.552;2023-03-01T14:20:09;16.75;;;7.85;;
68940;SDS011;55982;51.476;7.552;2023-03-01T14:22:40;14.40;;;7.07;;
68940;SDS011;55982;51.476;7.552;2023-03-01T14:25:19;16.35;;;7.68;;
68940;SDS011;55982;51.476;7.552;2023-03-01T14:27:51;15.60;;;8.68;;
68940;SDS011;55982;51.476;7.552;2023-03-01T14:30:24;15.18;;;8.85;;
68940;SDS011;55982;51.476;7.552;2023-03-01T14:32:59;16.60;;;9.52;;
68940;SDS011;55982;51.476;7.552;2023-03-01T14:35:28;13.98;;;8.30;;
68940;SDS011;55982;51.476;7.552;2023-03-01T14:37:58;14.60;;;7.68;;
68940;SDS011;55982;51.476;7.552;2023-03-01T14:42:55;18.42;;;8.65;;
68940;SDS011;55982;51.476;7.552;2023-03-01T14:45:25;14.98;;;8.35;;
68940;SDS011;55982;51.476;7.552;2023-03-01T14:47:52;14.77;;;8.02;;
68940;SDS011;55982;51.476;7.552;2023-03-01T14:50:23;18.70;;;8.63;;
68940;SDS011;55982;51.476;7.552;2023-03-01T14:52:54;14.07;;;8.23;;
68940;SDS011;55982;51.476;7.552;2023-03-01T14:55:25;15.15;;;7.70;;
68940;SDS011;55982;51.476;7.552;2023-03-01T14:57:54;14.30;;;8.23;;
68940;SDS011;55982;51.476;7.552;2023-03-01T15:00:22;14.75;;;8.63;;
68940;SDS011;55982;51.476;7.552;2023-03-01T15:02:53;13.65;;;7.72;;
68940;SDS011;55982;51.476;7.552;2023-03-01T15:05:30;14.43;;;8.70;;
68940;SDS011;55982;51.476;7.552;2023-03-01T15:07:58;16.98;;;8.35;;
68940;SDS011;55982;51.476;7.552;2023-03-01T15:10:55;16.27;;;8.65;;
68940;SDS011;55982;51.476;7.552;2023-03-01T15:13:25;13.68;;;7.75;;
68940;SDS011;55982;51.476;7.552;2023-03-01T15:16:00;16.05;;;8.88;;
68940;SDS011;55982;51.476;7.552;2023-03-01T15:21:29;16.42;;;8.13;;
68940;SDS011;55982;51.476;7.552;2023-03-01T15:24:03;16.58;;;8.43;;
68940;SDS011;55982;51.476;7.552;2023-03-01T15:26:43;14.50;;;9.15;;
68940;SDS011;55982;51.476;7.552;2023-03-01T15:29:15;11.85;;;6.70;;
68940;SDS011;55982;51.476;7.552;2023-03-01T15:31:52;17.50;;;8.13;;
68940;SDS011;55982;51.476;7.552;2023-03-01T15:34:29;16.10;;;8.70;;
68940;SDS011;55982;51.476;7.552;2023-03-01T15:36:58;16.65;;;8.77;;
68940;SDS011;55982;51.476;7.552;2023-03-01T15:44:50;18.92;;;8.85;;
68940;SDS011;55982;51.476;7.552;2023-03-01T15:48:03;14.75;;;8.82;;
68940;SDS011;55982;51.476;7.552;2023-03-01T15:50:31;17.20;;;9.10;;
68940;SDS011;55982;51.476;7.552;2023-03-01T15:52:59;15.75;;;7.93;;
68940;SDS011;55982;51.476;7.552;2023-03-01T15:55:27;16.33;;;8.50;;
68940;SDS011;55982;51.476;7.552;2023-03-01T16:00:59;23.60;;;12.25;;
68940;SDS011;55982;51.476;7.552;2023-03-01T16:03:24;12.90;;;8.05;;
68940;SDS011;55982;51.476;7.552;2023-03-01T16:05:50;20.30;;;11.75;;
68940;SDS011;55982;51.476;7.552;2023-03-01T16:08:16;16.52;;;9.25;;
68940;SDS011;55982;51.476;7.552;2023-03-01T16:10:43;23.65;;;8.40;;
68940;SDS011;55982;51.476;7.552;2023-03-01T16:13:13;16.92;;;8.55;;
68940;SDS011;55982;51.476;7.552;2023-03-01T16:15:39;17.20;;;9.15;;
68940;SDS011;55982;51.476;7.552;2023-03-01T16:18:05;17.08;;;8.75;;
68940;SDS011;55982;51.476;7.552;2023-03-01T16:20:31;16.75;;;7.85;;
68940;SDS011;55982;51.476;7.552;2023-03-01T16:23:07;15.93;;;7.68;;
68940;SDS011;55982;51.476;7.552;2023-03-01T16:25:35;18.73;;;8.52;;
68940;SDS011;55982;51.476;7.552;2023-03-01T16:28:01;14.73;;;8.48;;
68940;SDS011;55982;51.476;7.552;2023-03-01T16:30:29;15.75;;;7.80;;
68940;SDS011;55982;51.476;7.552;2023-03-01T16:32:55;17.52;;;8.98;;
68940;SDS011;55982;51.476;7.552;2023-03-01T16:35:21;16.90;;;8.00;;